Long Lake, MN (55356)

5:10 AM CST on February 12, 2016 (GMT -0600)
Forest Lake Bay | | Change Station
CLOSE
Current Station
Personal Weather Station
Location: Mound, MN
Elevation: 932 ft
Nearby Weather Stations

Elev 932 ft 44.96 °N, 93.64 °W | Updated 10 minutes ago

Clear
Clear
8.4 °F
Feels Like 1 °F
N
3.7
Wind Variable Wind from WNW

Today
High -- | Low -- °F
--% Chance of Precip.
Yesterday
High -- | Low -- °F
Precip. -- in
Pressure 30.31 in
Visibility 10.0 miles
Clouds Clear
Windchill 1 °F
Dew Point 8 °F
Humidity 99%
Rainfall 0.00 in
Snow Depth Not available.
7:20 AM 5:37 PM
Waxing Crescent, 19% visible
METAR KMIC 121053Z AUTO 31009KT 10SM CLR M12/M16 A3025 RMK AO2 SLP263 T11221161 TSNO
Pressure 30.31 in
Visibility 10.0 miles
Clouds Clear
Windchill 1 °F
Dew Point 8 °F
Humidity 99%
Rainfall 0.00 in
Snow Depth Not available.
7:20 AM 5:37 PM
Waxing Crescent, 19% visible
METAR KMIC 121053Z AUTO 31009KT 10SM CLR M12/M16 A3025 RMK AO2 SLP263 T11221161 TSNO

10-Day Weather Forecast

Almanac

Astronomy

Feb. 12, 2016 Rise Set
Actual Time
Civil Twilight
Nautical Twilight
Astronomical Twilight
Moon
Length of Visible Light
Length of Day
Tomorrow will be .
, % of the Moon is Illuminated

Today's Extremes

State Highs State Lows

Community

WunderPhotos

Upload Photos

1,892,289 photos uploaded!

WunderBlog® & News

Nearby

Air Quality

  Air Quality AQ Index Pollutant
Not available.

Snow Depth

Station Depth Elevation

Earthquake Activity

City Distance Mag. Time & Date
Minimum magnitude displayed is 2.5.

Coastal Water Temperatures

Place Temperature

Stations

Nearby Weather Stations

Station Location Temp. Windchill Dew Point Humidity Wind Precip. Elev Updated Type
                   

Watches & Warnings

There are currently no watches in effect.